sensor_id;sensor_type;location;lat;lon;timestamp;P1;durP1;ratioP1;P2;durP2;ratioP2
81036;SDS011;70521;47.468;19.306;2023-06-10T00:00:32;4.57;;;4.10;;
81036;SDS011;70521;47.468;19.306;2023-06-10T00:03:33;5.10;;;3.80;;
81036;SDS011;70521;47.468;19.306;2023-06-10T00:06:34;4.80;;;3.25;;
81036;SDS011;70521;47.468;19.306;2023-06-10T00:09:40;5.35;;;3.25;;
81036;SDS011;70521;47.468;19.306;2023-06-10T00:12:41;4.60;;;4.10;;
81036;SDS011;70521;47.468;19.306;2023-06-10T00:15:42;4.40;;;3.83;;
81036;SDS011;70521;47.468;19.306;2023-06-10T00:18:43;4.38;;;3.97;;
81036;SDS011;70521;47.468;19.306;2023-06-10T00:21:44;4.43;;;2.65;;
81036;SDS011;70521;47.468;19.306;2023-06-10T00:24:45;4.43;;;3.45;;
81036;SDS011;70521;47.468;19.306;2023-06-10T00:27:48;3.97;;;3.08;;
81036;SDS011;70521;47.468;19.306;2023-06-10T00:30:49;3.63;;;3.08;;
81036;SDS011;70521;47.468;19.306;2023-06-10T00:33:50;3.90;;;3.20;;
81036;SDS011;70521;47.468;19.306;2023-06-10T00:36:51;5.05;;;3.58;;
81036;SDS011;70521;47.468;19.306;2023-06-10T00:39:52;3.40;;;3.10;;
81036;SDS011;70521;47.468;19.306;2023-06-10T00:42:53;3.80;;;2.97;;
81036;SDS011;70521;47.468;19.306;2023-06-10T00:45:56;3.70;;;3.40;;
81036;SDS011;70521;47.468;19.306;2023-06-10T00:48:57;3.47;;;3.08;;
81036;SDS011;70521;47.468;19.306;2023-06-10T00:51:58;3.40;;;3.10;;
81036;SDS011;70521;47.468;19.306;2023-06-10T00:54:59;3.20;;;2.85;;
81036;SDS011;70521;47.468;19.306;2023-06-10T00:58:00;3.75;;;3.40;;
81036;SDS011;70521;47.468;19.306;2023-06-10T01:01:02;4.05;;;3.55;;
81036;SDS011;70521;47.468;19.306;2023-06-10T01:04:04;5.30;;;3.13;;
81036;SDS011;70521;47.468;19.306;2023-06-10T01:07:09;3.60;;;3.30;;
81036;SDS011;70521;47.468;19.306;2023-06-10T01:10:29;4.60;;;3.67;;
81036;SDS011;70521;47.468;19.306;2023-06-10T01:13:33;4.72;;;3.15;;
81036;SDS011;70521;47.468;19.306;2023-06-10T01:16:36;5.35;;;4.28;;
81036;SDS011;70521;47.468;19.306;2023-06-10T01:19:37;4.75;;;3.13;;
81036;SDS011;70521;47.468;19.306;2023-06-10T01:22:38;4.18;;;3.22;;
81036;SDS011;70521;47.468;19.306;2023-06-10T01:25:40;4.25;;;3.28;;
81036;SDS011;70521;47.468;19.306;2023-06-10T01:31:50;3.28;;;3.03;;
81036;SDS011;70521;47.468;19.306;2023-06-10T01:34:54;4.65;;;4.13;;
81036;SDS011;70521;47.468;19.306;2023-06-10T01:37:56;4.25;;;3.85;;
81036;SDS011;70521;47.468;19.306;2023-06-10T01:41:00;4.32;;;3.92;;
81036;SDS011;70521;47.468;19.306;2023-06-10T01:44:01;5.07;;;3.63;;
81036;SDS011;70521;47.468;19.306;2023-06-10T01:47:03;4.60;;;4.18;;
81036;SDS011;70521;47.468;19.306;2023-06-10T01:50:04;4.97;;;4.57;;
81036;SDS011;70521;47.468;19.306;2023-06-10T01:53:05;6.47;;;4.75;;
81036;SDS011;70521;47.468;19.306;2023-06-10T01:56:06;5.20;;;4.70;;
81036;SDS011;70521;47.468;19.306;2023-06-10T01:59:07;5.38;;;4.03;;
81036;SDS011;70521;47.468;19.306;2023-06-10T02:02:08;4.43;;;4.03;;
81036;SDS011;70521;47.468;19.306;2023-06-10T02:05:09;4.10;;;3.70;;
81036;SDS011;70521;47.468;19.306;2023-06-10T02:08:10;4.95;;;4.47;;
81036;SDS011;70521;47.468;19.306;2023-06-10T02:11:11;5.22;;;4.07;;
81036;SDS011;70521;47.468;19.306;2023-06-10T02:14:12;5.32;;;4.03;;
81036;SDS011;70521;47.468;19.306;2023-06-10T02:17:13;5.15;;;4.32;;
81036;SDS011;70521;47.468;19.306;2023-06-10T02:20:16;5.70;;;4.22;;
81036;SDS011;70521;47.468;19.306;2023-06-10T02:23:17;5.88;;;5.28;;
81036;SDS011;70521;47.468;19.306;2023-06-10T02:26:18;4.85;;;4.18;;
81036;SDS011;70521;47.468;19.306;2023-06-10T02:29:21;4.10;;;3.70;;
81036;SDS011;70521;47.468;19.306;2023-06-10T02:32:22;4.65;;;4.10;;
81036;SDS011;70521;47.468;19.306;2023-06-10T02:35:23;5.55;;;3.72;;
81036;SDS011;70521;47.468;19.306;2023-06-10T02:38:26;4.32;;;3.92;;
81036;SDS011;70521;47.468;19.306;2023-06-10T02:41:28;4.32;;;3.65;;
81036;SDS011;70521;47.468;19.306;2023-06-10T02:44:29;4.32;;;3.90;;
81036;SDS011;70521;47.468;19.306;2023-06-10T02:47:30;6.53;;;4.72;;
81036;SDS011;70521;47.468;19.306;2023-06-10T02:50:32;6.55;;;5.90;;
81036;SDS011;70521;47.468;19.306;2023-06-10T02:53:45;4.82;;;4.43;;
81036;SDS011;70521;47.468;19.306;2023-06-10T02:56:47;5.30;;;3.22;;
81036;SDS011;70521;47.468;19.306;2023-06-10T02:59:54;6.00;;;4.45;;
81036;SDS011;70521;47.468;19.306;2023-06-10T03:02:56;5.32;;;4.75;;
81036;SDS011;70521;47.468;19.306;2023-06-10T03:09:03;4.20;;;3.70;;
81036;SDS011;70521;47.468;19.306;2023-06-10T03:12:12;6.03;;;4.15;;
81036;SDS011;70521;47.468;19.306;2023-06-10T03:15:18;4.38;;;3.80;;
81036;SDS011;70521;47.468;19.306;2023-06-10T03:18:25;3.92;;;3.53;;
81036;SDS011;70521;47.468;19.306;2023-06-10T03:21:26;4.45;;;4.03;;
81036;SDS011;70521;47.468;19.306;2023-06-10T03:24:30;4.47;;;3.97;;
81036;SDS011;70521;47.468;19.306;2023-06-10T03:27:32;4.60;;;3.92;;
81036;SDS011;70521;47.468;19.306;2023-06-10T03:30:37;3.53;;;3.17;;
81036;SDS011;70521;47.468;19.306;2023-06-10T03:33:39;5.85;;;4.07;;
81036;SDS011;70521;47.468;19.306;2023-06-10T03:36:40;8.57;;;4.93;;
81036;SDS011;70521;47.468;19.306;2023-06-10T03:39:44;3.72;;;3.35;;
81036;SDS011;70521;47.468;19.306;2023-06-10T03:42:45;4.75;;;4.35;;
81036;SDS011;70521;47.468;19.306;2023-06-10T03:45:48;4.18;;;3.78;;
81036;SDS011;70521;47.468;19.306;2023-06-10T03:48:50;4.15;;;3.60;;
81036;SDS011;70521;47.468;19.306;2023-06-10T03:51:52;5.57;;;4.93;;
81036;SDS011;70521;47.468;19.306;2023-06-10T03:54:53;4.53;;;3.70;;
81036;SDS011;70521;47.468;19.306;2023-06-10T03:57:54;5.60;;;3.90;;
81036;SDS011;70521;47.468;19.306;2023-06-10T04:00:55;4.65;;;4.25;;
81036;SDS011;70521;47.468;19.306;2023-06-10T04:04:04;4.13;;;3.72;;
81036;SDS011;70521;47.468;19.306;2023-06-10T04:07:08;4.13;;;3.83;;
81036;SDS011;70521;47.468;19.306;2023-06-10T04:10:10;3.95;;;3.42;;
81036;SDS011;70521;47.468;19.306;2023-06-10T04:13:11;4.75;;;4.10;;
81036;SDS011;70521;47.468;19.306;2023-06-10T04:16:20;4.93;;;4.50;;
81036;SDS011;70521;47.468;19.306;2023-06-10T04:19:22;3.78;;;3.47;;
81036;SDS011;70521;47.468;19.306;2023-06-10T04:22:25;4.40;;;3.15;;
81036;SDS011;70521;47.468;19.306;2023-06-10T04:25:27;4.38;;;3.38;;
81036;SDS011;70521;47.468;19.306;2023-06-10T04:28:29;3.92;;;3.47;;
81036;SDS011;70521;47.468;19.306;2023-06-10T04:31:31;5.40;;;3.67;;
81036;SDS011;70521;47.468;19.306;2023-06-10T04:34:33;4.32;;;3.83;;
81036;SDS011;70521;47.468;19.306;2023-06-10T04:37:35;4.13;;;3.70;;
81036;SDS011;70521;47.468;19.306;2023-06-10T04:40:36;5.07;;;4.50;;
81036;SDS011;70521;47.468;19.306;2023-06-10T04:43:38;7.85;;;7.13;;
81036;SDS011;70521;47.468;19.306;2023-06-10T04:46:40;4.80;;;4.18;;
81036;SDS011;70521;47.468;19.306;2023-06-10T04:49:41;5.47;;;4.45;;
81036;SDS011;70521;47.468;19.306;2023-06-10T04:52:42;4.93;;;3.83;;
81036;SDS011;70521;47.468;19.306;2023-06-10T04:55:43;6.93;;;4.90;;
81036;SDS011;70521;47.468;19.306;2023-06-10T04:58:44;5.57;;;5.03;;
81036;SDS011;70521;47.468;19.306;2023-06-10T05:01:45;7.38;;;5.00;;
81036;SDS011;70521;47.468;19.306;2023-06-10T05:04:46;7.20;;;4.25;;
81036;SDS011;70521;47.468;19.306;2023-06-10T05:07:47;5.75;;;4.63;;
81036;SDS011;70521;47.468;19.306;2023-06-10T05:10:48;5.75;;;4.15;;
81036;SDS011;70521;47.468;19.306;2023-06-10T05:13:50;5.63;;;4.50;;
81036;SDS011;70521;47.468;19.306;2023-06-10T05:16:51;5.22;;;4.72;;
81036;SDS011;70521;47.468;19.306;2023-06-10T05:19:52;5.68;;;4.53;;
81036;SDS011;70521;47.468;19.306;2023-06-10T05:22:53;5.57;;;4.75;;
81036;SDS011;70521;47.468;19.306;2023-06-10T05:25:54;4.97;;;4.15;;
81036;SDS011;70521;47.468;19.306;2023-06-10T05:28:55;5.78;;;4.43;;
81036;SDS011;70521;47.468;19.306;2023-06-10T05:31:57;6.38;;;5.18;;
81036;SDS011;70521;47.468;19.306;2023-06-10T05:35:01;6.07;;;4.75;;
81036;SDS011;70521;47.468;19.306;2023-06-10T05:38:02;6.38;;;4.85;;
81036;SDS011;70521;47.468;19.306;2023-06-10T05:41:03;5.45;;;4.45;;
81036;SDS011;70521;47.468;19.306;2023-06-10T05:44:04;5.22;;;4.22;;
81036;SDS011;70521;47.468;19.306;2023-06-10T05:47:05;6.43;;;5.05;;
81036;SDS011;70521;47.468;19.306;2023-06-10T05:50:07;6.63;;;5.15;;
81036;SDS011;70521;47.468;19.306;2023-06-10T05:53:09;5.65;;;4.72;;
81036;SDS011;70521;47.468;19.306;2023-06-10T05:56:15;7.88;;;5.18;;
81036;SDS011;70521;47.468;19.306;2023-06-10T05:59:16;4.28;;;3.65;;
81036;SDS011;70521;47.468;19.306;2023-06-10T06:02:17;5.82;;;5.20;;
81036;SDS011;70521;47.468;19.306;2023-06-10T06:05:18;8.13;;;4.97;;
81036;SDS011;70521;47.468;19.306;2023-06-10T06:08:20;6.45;;;5.30;;
81036;SDS011;70521;47.468;19.306;2023-06-10T06:11:21;7.43;;;6.38;;
81036;SDS011;70521;47.468;19.306;2023-06-10T06:14:22;7.80;;;6.00;;
81036;SDS011;70521;47.468;19.306;2023-06-10T06:17:23;10.05;;;7.03;;
81036;SDS011;70521;47.468;19.306;2023-06-10T06:20:24;8.32;;;6.55;;
81036;SDS011;70521;47.468;19.306;2023-06-10T06:23:25;15.05;;;6.95;;
81036;SDS011;70521;47.468;19.306;2023-06-10T06:26:26;11.07;;;7.30;;
81036;SDS011;70521;47.468;19.306;2023-06-10T06:29:27;11.15;;;6.70;;
81036;SDS011;70521;47.468;19.306;2023-06-10T06:32:30;11.20;;;7.10;;
81036;SDS011;70521;47.468;19.306;2023-06-10T06:35:32;11.27;;;6.13;;
81036;SDS011;70521;47.468;19.306;2023-06-10T06:38:34;13.27;;;7.95;;
81036;SDS011;70521;47.468;19.306;2023-06-10T06:41:35;13.63;;;6.97;;
81036;SDS011;70521;47.468;19.306;2023-06-10T06:44:39;11.85;;;7.88;;
81036;SDS011;70521;47.468;19.306;2023-06-10T06:47:40;8.98;;;5.55;;
81036;SDS011;70521;47.468;19.306;2023-06-10T06:50:41;10.57;;;6.80;;
81036;SDS011;70521;47.468;19.306;2023-06-10T06:53:42;12.38;;;7.60;;
81036;SDS011;70521;47.468;19.306;2023-06-10T06:56:45;15.75;;;8.40;;
81036;SDS011;70521;47.468;19.306;2023-06-10T06:59:46;11.25;;;6.53;;
81036;SDS011;70521;47.468;19.306;2023-06-10T07:02:48;12.98;;;8.27;;
81036;SDS011;70521;47.468;19.306;2023-06-10T07:05:49;12.48;;;7.93;;
81036;SDS011;70521;47.468;19.306;2023-06-10T07:08:50;10.55;;;6.95;;
81036;SDS011;70521;47.468;19.306;2023-06-10T07:11:52;11.98;;;7.82;;
81036;SDS011;70521;47.468;19.306;2023-06-10T07:14:53;11.98;;;8.00;;
81036;SDS011;70521;47.468;19.306;2023-06-10T07:17:54;10.40;;;7.45;;
81036;SDS011;70521;47.468;19.306;2023-06-10T07:20:56;11.77;;;7.55;;
81036;SDS011;70521;47.468;19.306;2023-06-10T07:23:57;12.80;;;8.93;;
81036;SDS011;70521;47.468;19.306;2023-06-10T07:26:58;9.93;;;7.53;;
81036;SDS011;70521;47.468;19.306;2023-06-10T07:29:59;12.32;;;8.10;;
81036;SDS011;70521;47.468;19.306;2023-06-10T07:33:01;10.80;;;7.95;;
81036;SDS011;70521;47.468;19.306;2023-06-10T07:36:03;10.55;;;6.85;;
81036;SDS011;70521;47.468;19.306;2023-06-10T07:39:04;13.38;;;7.75;;
81036;SDS011;70521;47.468;19.306;2023-06-10T07:42:05;12.27;;;8.70;;
81036;SDS011;70521;47.468;19.306;2023-06-10T07:45:07;11.93;;;7.38;;
81036;SDS011;70521;47.468;19.306;2023-06-10T07:48:08;10.05;;;7.25;;
81036;SDS011;70521;47.468;19.306;2023-06-10T07:51:09;13.30;;;7.32;;
81036;SDS011;70521;47.468;19.306;2023-06-10T07:54:10;10.90;;;8.05;;
81036;SDS011;70521;47.468;19.306;2023-06-10T07:57:13;10.70;;;7.10;;
81036;SDS011;70521;47.468;19.306;2023-06-10T08:00:14;9.95;;;6.38;;
81036;SDS011;70521;47.468;19.306;2023-06-10T08:03:15;8.60;;;6.82;;
81036;SDS011;70521;47.468;19.306;2023-06-10T08:06:16;10.13;;;7.70;;
81036;SDS011;70521;47.468;19.306;2023-06-10T08:09:18;13.27;;;8.07;;
81036;SDS011;70521;47.468;19.306;2023-06-10T08:12:23;11.52;;;6.80;;
81036;SDS011;70521;47.468;19.306;2023-06-10T08:15:24;11.02;;;6.95;;
81036;SDS011;70521;47.468;19.306;2023-06-10T08:18:25;10.75;;;7.45;;
81036;SDS011;70521;47.468;19.306;2023-06-10T08:21:26;9.85;;;7.45;;
81036;SDS011;70521;47.468;19.306;2023-06-10T08:24:29;10.02;;;7.10;;
81036;SDS011;70521;47.468;19.306;2023-06-10T08:27:30;10.57;;;7.25;;
81036;SDS011;70521;47.468;19.306;2023-06-10T08:30:31;11.93;;;8.07;;
81036;SDS011;70521;47.468;19.306;2023-06-10T08:33:32;11.77;;;9.63;;
81036;SDS011;70521;47.468;19.306;2023-06-10T08:36:33;10.90;;;9.02;;
81036;SDS011;70521;47.468;19.306;2023-06-10T08:39:34;11.82;;;8.68;;
81036;SDS011;70521;47.468;19.306;2023-06-10T08:45:42;11.82;;;8.50;;
81036;SDS011;70521;47.468;19.306;2023-06-10T08:48:44;8.80;;;7.25;;
81036;SDS011;70521;47.468;19.306;2023-06-10T08:51:47;9.35;;;7.50;;
81036;SDS011;70521;47.468;19.306;2023-06-10T08:54:52;10.00;;;7.63;;
81036;SDS011;70521;47.468;19.306;2023-06-10T08:57:55;9.45;;;7.55;;
81036;SDS011;70521;47.468;19.306;2023-06-10T09:00:56;10.45;;;7.80;;
81036;SDS011;70521;47.468;19.306;2023-06-10T09:03:58;8.48;;;6.70;;
81036;SDS011;70521;47.468;19.306;2023-06-10T09:07:00;6.80;;;6.03;;
81036;SDS011;70521;47.468;19.306;2023-06-10T09:10:01;8.95;;;6.32;;
81036;SDS011;70521;47.468;19.306;2023-06-10T09:13:04;7.38;;;6.65;;
81036;SDS011;70521;47.468;19.306;2023-06-10T09:16:06;6.90;;;6.18;;
81036;SDS011;70521;47.468;19.306;2023-06-10T09:19:07;6.25;;;5.35;;
81036;SDS011;70521;47.468;19.306;2023-06-10T09:22:08;6.07;;;5.47;;
81036;SDS011;70521;47.468;19.306;2023-06-10T09:25:10;6.18;;;5.28;;
81036;SDS011;70521;47.468;19.306;2023-06-10T09:28:15;4.65;;;4.13;;
81036;SDS011;70521;47.468;19.306;2023-06-10T09:31:16;5.03;;;3.67;;
81036;SDS011;70521;47.468;19.306;2023-06-10T09:34:24;3.35;;;2.80;;
81036;SDS011;70521;47.468;19.306;2023-06-10T09:37:26;2.50;;;2.30;;
81036;SDS011;70521;47.468;19.306;2023-06-10T09:40:27;2.33;;;2.13;;
81036;SDS011;70521;47.468;19.306;2023-06-10T09:43:38;2.70;;;2.30;;
81036;SDS011;70521;47.468;19.306;2023-06-10T09:46:40;3.75;;;2.30;;
81036;SDS011;70521;47.468;19.306;2023-06-10T09:49:41;2.65;;;2.25;;
81036;SDS011;70521;47.468;19.306;2023-06-10T09:52:42;2.15;;;1.98;;
81036;SDS011;70521;47.468;19.306;2023-06-10T09:55:43;2.33;;;1.85;;
81036;SDS011;70521;47.468;19.306;2023-06-10T09:58:45;2.90;;;2.70;;
81036;SDS011;70521;47.468;19.306;2023-06-10T10:01:48;3.00;;;2.80;;
81036;SDS011;70521;47.468;19.306;2023-06-10T10:05:01;3.22;;;2.92;;
81036;SDS011;70521;47.468;19.306;2023-06-10T10:08:03;4.97;;;3.00;;
81036;SDS011;70521;47.468;19.306;2023-06-10T10:11:04;3.08;;;2.88;;
81036;SDS011;70521;47.468;19.306;2023-06-10T10:14:05;4.43;;;3.53;;
81036;SDS011;70521;47.468;19.306;2023-06-10T10:17:09;3.83;;;3.47;;
81036;SDS011;70521;47.468;19.306;2023-06-10T10:20:11;3.92;;;3.63;;
81036;SDS011;70521;47.468;19.306;2023-06-10T10:23:14;4.72;;;4.32;;
81036;SDS011;70521;47.468;19.306;2023-06-10T10:26:16;4.15;;;3.75;;
81036;SDS011;70521;47.468;19.306;2023-06-10T10:29:24;4.50;;;3.58;;
81036;SDS011;70521;47.468;19.306;2023-06-10T10:32:35;4.97;;;4.40;;
81036;SDS011;70521;47.468;19.306;2023-06-10T10:35:39;4.20;;;3.80;;
81036;SDS011;70521;47.468;19.306;2023-06-10T10:38:40;4.75;;;4.05;;
81036;SDS011;70521;47.468;19.306;2023-06-10T10:41:42;6.43;;;5.00;;
81036;SDS011;70521;47.468;19.306;2023-06-10T10:44:43;5.38;;;4.32;;
81036;SDS011;70521;47.468;19.306;2023-06-10T10:47:45;4.22;;;3.80;;
81036;SDS011;70521;47.468;19.306;2023-06-10T10:50:55;5.15;;;4.65;;
81036;SDS011;70521;47.468;19.306;2023-06-10T10:54:12;5.18;;;3.80;;
81036;SDS011;70521;47.468;19.306;2023-06-10T10:57:19;3.83;;;3.53;;
81036;SDS011;70521;47.468;19.306;2023-06-10T11:00:27;4.15;;;3.70;;
81036;SDS011;70521;47.468;19.306;2023-06-10T11:03:29;3.90;;;3.40;;
81036;SDS011;70521;47.468;19.306;2023-06-10T11:06:33;3.97;;;3.65;;
81036;SDS011;70521;47.468;19.306;2023-06-10T11:09:34;3.88;;;3.50;;
81036;SDS011;70521;47.468;19.306;2023-06-10T11:15:50;3.15;;;2.65;;
81036;SDS011;70521;47.468;19.306;2023-06-10T11:18:53;3.58;;;3.28;;
81036;SDS011;70521;47.468;19.306;2023-06-10T11:21:58;2.83;;;2.63;;
81036;SDS011;70521;47.468;19.306;2023-06-10T11:25:02;3.25;;;2.80;;
81036;SDS011;70521;47.468;19.306;2023-06-10T11:28:03;3.88;;;3.42;;
81036;SDS011;70521;47.468;19.306;2023-06-10T11:31:28;3.60;;;3.25;;
81036;SDS011;70521;47.468;19.306;2023-06-10T11:34:29;3.72;;;3.42;;
81036;SDS011;70521;47.468;19.306;2023-06-10T11:37:30;4.75;;;2.90;;
81036;SDS011;70521;47.468;19.306;2023-06-10T11:40:31;3.08;;;2.88;;
81036;SDS011;70521;47.468;19.306;2023-06-10T11:43:33;3.67;;;2.85;;
81036;SDS011;70521;47.468;19.306;2023-06-10T11:46:34;2.83;;;2.63;;
81036;SDS011;70521;47.468;19.306;2023-06-10T11:49:35;2.50;;;2.30;;
81036;SDS011;70521;47.468;19.306;2023-06-10T11:52:36;2.67;;;2.47;;
81036;SDS011;70521;47.468;19.306;2023-06-10T11:55:49;2.88;;;2.53;;
81036;SDS011;70521;47.468;19.306;2023-06-10T11:58:52;2.67;;;2.22;;
81036;SDS011;70521;47.468;19.306;2023-06-10T12:01:53;3.38;;;2.83;;
81036;SDS011;70521;47.468;19.306;2023-06-10T12:04:55;3.47;;;3.20;;
81036;SDS011;70521;47.468;19.306;2023-06-10T12:08:10;3.22;;;2.92;;
81036;SDS011;70521;47.468;19.306;2023-06-10T12:11:11;2.70;;;2.50;;
81036;SDS011;70521;47.468;19.306;2023-06-10T12:14:12;3.60;;;3.30;;
81036;SDS011;70521;47.468;19.306;2023-06-10T12:17:13;4.25;;;3.85;;
81036;SDS011;70521;47.468;19.306;2023-06-10T12:20:28;3.10;;;2.28;;
81036;SDS011;70521;47.468;19.306;2023-06-10T12:23:29;2.72;;;2.45;;
81036;SDS011;70521;47.468;19.306;2023-06-10T12:26:43;3.10;;;2.83;;
81036;SDS011;70521;47.468;19.306;2023-06-10T12:29:51;3.22;;;2.92;;
81036;SDS011;70521;47.468;19.306;2023-06-10T12:32:54;4.55;;;2.88;;
81036;SDS011;70521;47.468;19.306;2023-06-10T12:35:56;3.40;;;2.95;;
81036;SDS011;70521;47.468;19.306;2023-06-10T12:39:02;2.78;;;2.58;;
81036;SDS011;70521;47.468;19.306;2023-06-10T12:42:03;3.15;;;2.95;;
81036;SDS011;70521;47.468;19.306;2023-06-10T12:45:05;2.50;;;2.30;;
81036;SDS011;70521;47.468;19.306;2023-06-10T12:48:08;2.40;;;2.20;;
81036;SDS011;70521;47.468;19.306;2023-06-10T12:51:10;2.20;;;2.00;;
81036;SDS011;70521;47.468;19.306;2023-06-10T12:54:11;2.20;;;1.95;;
81036;SDS011;70521;47.468;19.306;2023-06-10T12:57:12;2.03;;;1.80;;
81036;SDS011;70521;47.468;19.306;2023-06-10T13:00:13;1.80;;;1.70;;
81036;SDS011;70521;47.468;19.306;2023-06-10T13:03:15;2.03;;;1.83;;
81036;SDS011;70521;47.468;19.306;2023-06-10T13:06:16;2.10;;;1.80;;
81036;SDS011;70521;47.468;19.306;2023-06-10T13:09:17;2.10;;;1.90;;
81036;SDS011;70521;47.468;19.306;2023-06-10T13:12:18;2.70;;;2.38;;
81036;SDS011;70521;47.468;19.306;2023-06-10T13:15:19;2.63;;;2.42;;
81036;SDS011;70521;47.468;19.306;2023-06-10T13:18:20;2.47;;;2.28;;
81036;SDS011;70521;47.468;19.306;2023-06-10T13:21:21;2.60;;;2.40;;
81036;SDS011;70521;47.468;19.306;2023-06-10T13:24:22;2.47;;;2.08;;
81036;SDS011;70521;47.468;19.306;2023-06-10T13:27:24;2.45;;;2.25;;
81036;SDS011;70521;47.468;19.306;2023-06-10T13:30:25;3.08;;;2.35;;
81036;SDS011;70521;47.468;19.306;2023-06-10T13:33:27;2.40;;;2.20;;
81036;SDS011;70521;47.468;19.306;2023-06-10T13:36:28;2.45;;;2.25;;
81036;SDS011;70521;47.468;19.306;2023-06-10T13:39:29;2.60;;;2.40;;
81036;SDS011;70521;47.468;19.306;2023-06-10T13:42:30;3.42;;;2.72;;
81036;SDS011;70521;47.468;19.306;2023-06-10T13:45:31;3.53;;;2.58;;
81036;SDS011;70521;47.468;19.306;2023-06-10T13:48:32;3.13;;;2.83;;
81036;SDS011;70521;47.468;19.306;2023-06-10T13:51:34;3.63;;;2.90;;
81036;SDS011;70521;47.468;19.306;2023-06-10T13:54:35;3.03;;;2.72;;
81036;SDS011;70521;47.468;19.306;2023-06-10T13:57:39;3.40;;;3.13;;
81036;SDS011;70521;47.468;19.306;2023-06-10T14:00:40;3.25;;;2.95;;
81036;SDS011;70521;47.468;19.306;2023-06-10T14:03:41;2.85;;;2.65;;
81036;SDS011;70521;47.468;19.306;2023-06-10T14:06:42;3.13;;;2.83;;
81036;SDS011;70521;47.468;19.306;2023-06-10T14:09:44;3.10;;;2.47;;
81036;SDS011;70521;47.468;19.306;2023-06-10T14:12:46;2.33;;;2.10;;
81036;SDS011;70521;47.468;19.306;2023-06-10T14:15:47;2.55;;;2.20;;
81036;SDS011;70521;47.468;19.306;2023-06-10T14:18:48;2.38;;;2.17;;
81036;SDS011;70521;47.468;19.306;2023-06-10T14:21:50;2.42;;;2.22;;
81036;SDS011;70521;47.468;19.306;2023-06-10T14:24:53;2.80;;;2.47;;
81036;SDS011;70521;47.468;19.306;2023-06-10T14:27:54;2.60;;;2.40;;
81036;SDS011;70521;47.468;19.306;2023-06-10T14:30:55;3.15;;;2.95;;
81036;SDS011;70521;47.468;19.306;2023-06-10T14:33:58;2.90;;;2.70;;
81036;SDS011;70521;47.468;19.306;2023-06-10T14:36:59;3.53;;;3.22;;
81036;SDS011;70521;47.468;19.306;2023-06-10T14:40:00;3.85;;;3.55;;
81036;SDS011;70521;47.468;19.306;2023-06-10T14:43:01;3.40;;;3.10;;
81036;SDS011;70521;47.468;19.306;2023-06-10T14:46:05;3.58;;;3.10;;
81036;SDS011;70521;47.468;19.306;2023-06-10T14:49:06;3.85;;;3.35;;
81036;SDS011;70521;47.468;19.306;2023-06-10T14:52:07;3.30;;;3.00;;
81036;SDS011;70521;47.468;19.306;2023-06-10T14:55:08;3.88;;;3.22;;
81036;SDS011;70521;47.468;19.306;2023-06-10T14:58:10;3.13;;;2.85;;
81036;SDS011;70521;47.468;19.306;2023-06-10T15:01:11;2.60;;;2.40;;
81036;SDS011;70521;47.468;19.306;2023-06-10T15:04:12;2.88;;;2.55;;
81036;SDS011;70521;47.468;19.306;2023-06-10T15:07:13;2.35;;;2.05;;
81036;SDS011;70521;47.468;19.306;2023-06-10T15:10:16;2.17;;;1.98;;
81036;SDS011;70521;47.468;19.306;2023-06-10T15:13:17;2.90;;;2.70;;
81036;SDS011;70521;47.468;19.306;2023-06-10T15:16:18;2.90;;;2.70;;
81036;SDS011;70521;47.468;19.306;2023-06-10T15:19:19;3.00;;;2.78;;
81036;SDS011;70521;47.468;19.306;2023-06-10T15:22:20;3.72;;;3.35;;
81036;SDS011;70521;47.468;19.306;2023-06-10T15:25:21;3.33;;;2.90;;
81036;SDS011;70521;47.468;19.306;2023-06-10T15:28:22;2.45;;;2.25;;
81036;SDS011;70521;47.468;19.306;2023-06-10T15:31:23;2.70;;;2.50;;
81036;SDS011;70521;47.468;19.306;2023-06-10T15:34:24;3.22;;;2.38;;
81036;SDS011;70521;47.468;19.306;2023-06-10T15:37:26;2.78;;;2.58;;
81036;SDS011;70521;47.468;19.306;2023-06-10T15:40:27;2.95;;;2.53;;
81036;SDS011;70521;47.468;19.306;2023-06-10T15:43:28;2.20;;;2.00;;
81036;SDS011;70521;47.468;19.306;2023-06-10T15:46:29;2.53;;;2.33;;
81036;SDS011;70521;47.468;19.306;2023-06-10T15:49:30;2.20;;;2.00;;
81036;SDS011;70521;47.468;19.306;2023-06-10T15:52:31;2.20;;;2.00;;
81036;SDS011;70521;47.468;19.306;2023-06-10T15:55:32;1.90;;;1.67;;
81036;SDS011;70521;47.468;19.306;2023-06-10T15:58:33;2.47;;;2.10;;
81036;SDS011;70521;47.468;19.306;2023-06-10T16:01:34;1.90;;;1.70;;
81036;SDS011;70521;47.468;19.306;2023-06-10T16:04:35;2.20;;;2.00;;
81036;SDS011;70521;47.468;19.306;2023-06-10T16:07:37;3.40;;;3.15;;
81036;SDS011;70521;47.468;19.306;2023-06-10T16:10:38;3.15;;;2.55;;
81036;SDS011;70521;47.468;19.306;2023-06-10T16:13:39;2.45;;;2.25;;
81036;SDS011;70521;47.468;19.306;2023-06-10T16:16:41;2.78;;;2.58;;
81036;SDS011;70521;47.468;19.306;2023-06-10T16:19:42;2.75;;;2.38;;
81036;SDS011;70521;47.468;19.306;2023-06-10T16:22:44;3.10;;;2.72;;
81036;SDS011;70521;47.468;19.306;2023-06-10T16:25:47;3.67;;;2.50;;
81036;SDS011;70521;47.468;19.306;2023-06-10T16:28:48;3.60;;;3.30;;
81036;SDS011;70521;47.468;19.306;2023-06-10T16:31:49;2.92;;;2.63;;
81036;SDS011;70521;47.468;19.306;2023-06-10T16:34:50;3.20;;;2.70;;
81036;SDS011;70521;47.468;19.306;2023-06-10T16:37:51;2.90;;;2.67;;
81036;SDS011;70521;47.468;19.306;2023-06-10T16:40:52;3.20;;;2.35;;
81036;SDS011;70521;47.468;19.306;2023-06-10T16:43:53;2.85;;;2.55;;
81036;SDS011;70521;47.468;19.306;2023-06-10T16:46:55;4.55;;;3.00;;
81036;SDS011;70521;47.468;19.306;2023-06-10T16:49:56;2.83;;;2.63;;
81036;SDS011;70521;47.468;19.306;2023-06-10T16:52:57;2.95;;;2.70;;
81036;SDS011;70521;47.468;19.306;2023-06-10T16:55:59;3.42;;;3.13;;
81036;SDS011;70521;47.468;19.306;2023-06-10T16:59:00;2.63;;;2.42;;
81036;SDS011;70521;47.468;19.306;2023-06-10T17:02:01;2.40;;;2.20;;
81036;SDS011;70521;47.468;19.306;2023-06-10T17:05:02;3.47;;;3.08;;
81036;SDS011;70521;47.468;19.306;2023-06-10T17:08:04;4.03;;;2.88;;
81036;SDS011;70521;47.468;19.306;2023-06-10T17:11:05;3.10;;;2.90;;
81036;SDS011;70521;47.468;19.306;2023-06-10T17:14:06;3.55;;;3.25;;
81036;SDS011;70521;47.468;19.306;2023-06-10T17:17:07;3.08;;;2.88;;
81036;SDS011;70521;47.468;19.306;2023-06-10T17:20:08;2.80;;;2.47;;
81036;SDS011;70521;47.468;19.306;2023-06-10T17:23:09;3.78;;;3.33;;
81036;SDS011;70521;47.468;19.306;2023-06-10T17:26:10;3.22;;;3.03;;
81036;SDS011;70521;47.468;19.306;2023-06-10T17:29:11;3.95;;;2.45;;
81036;SDS011;70521;47.468;19.306;2023-06-10T17:32:13;2.80;;;2.50;;
81036;SDS011;70521;47.468;19.306;2023-06-10T17:35:16;4.32;;;3.67;;
81036;SDS011;70521;47.468;19.306;2023-06-10T17:38:17;3.60;;;3.30;;
81036;SDS011;70521;47.468;19.306;2023-06-10T17:41:20;3.25;;;2.95;;
81036;SDS011;70521;47.468;19.306;2023-06-10T17:44:21;3.20;;;2.80;;
81036;SDS011;70521;47.468;19.306;2023-06-10T17:47:25;2.95;;;2.63;;
81036;SDS011;70521;47.468;19.306;2023-06-10T17:50:26;2.90;;;2.70;;
81036;SDS011;70521;47.468;19.306;2023-06-10T17:53:27;3.63;;;3.33;;
81036;SDS011;70521;47.468;19.306;2023-06-10T17:56:28;3.10;;;2.83;;
81036;SDS011;70521;47.468;19.306;2023-06-10T17:59:29;2.70;;;2.50;;
81036;SDS011;70521;47.468;19.306;2023-06-10T18:02:30;2.78;;;2.58;;
81036;SDS011;70521;47.468;19.306;2023-06-10T18:05:31;3.22;;;2.92;;
81036;SDS011;70521;47.468;19.306;2023-06-10T18:08:32;3.20;;;2.90;;
81036;SDS011;70521;47.468;19.306;2023-06-10T18:11:35;3.58;;;2.50;;